Time;durP1;ratioP1;P1;durP2;ratioP2;P2;SDS_P1;SDS_P2;PMS_P1;PMS_P2;Temp;Humidity;BMP_temperature;BMP_pressure;BME280_temperature;BME280_humidity;BME280_pressure;Samples;Min_cycle;Max_cycle;Signal;HPM_P1;HPM_P2
2022/11/25 00:01:47;;;;;;;13.43;6.90;;;;;;;;;;5077038;28;20432;-69
2022/11/25 00:04:12;;;;;;;12.87;6.40;;;;;;;;;;5076851;28;20070;-69
2022/11/25 00:06:38;;;;;;;18.97;6.40;;;;;;;;;;5076779;28;20466;-69
2022/11/25 00:09:09;;;;;;;13.80;6.97;;;;;;;;;;5077049;28;20092;-71
2022/11/25 00:11:35;;;;;;;10.23;5.38;;;;;;;;;;5094471;28;20382;-70
2022/11/25 00:14:01;;;;;;;11.20;5.90;;;;;;;;;;5077072;28;20079;-69
2022/11/25 00:16:27;;;;;;;13.37;6.57;;;;;;;;;;5059936;28;20467;-69
2022/11/25 00:18:53;;;;;;;11.43;6.03;;;;;;;;;;5059910;28;20115;-70
2022/11/25 00:21:20;;;;;;;9.87;5.47;;;;;;;;;;5076533;28;20478;-70
2022/11/25 00:23:53;;;;;;;13.33;5.43;;;;;;;;;;5076739;28;20035;-70
2022/11/25 00:26:19;;;;;;;14.03;6.13;;;;;;;;;;5059849;28;20038;-70
2022/11/25 00:28:45;;;;;;;11.67;5.57;;;;;;;;;;5059939;28;20032;-69
2022/11/25 00:31:15;;;;;;;10.50;5.30;;;;;;;;;;5058820;28;20044;-69
2022/11/25 00:33:41;;;;;;;11.73;5.63;;;;;;;;;;5076131;28;20035;-70
2022/11/25 00:36:14;;;;;;;11.67;6.03;;;;;;;;;;5059807;28;20443;-70
2022/11/25 00:38:39;;;;;;;12.80;5.63;;;;;;;;;;5076291;28;20130;-69
2022/11/25 00:46:33;;;;;;;9.70;5.63;;;;;;;;;;5076171;28;20084;-69
2022/11/25 00:48:58;;;;;;;11.07;6.20;;;;;;;;;;5093714;28;20124;-70
2022/11/25 00:51:24;;;;;;;13.67;6.00;;;;;;;;;;5059710;28;20047;-69
2022/11/25 00:53:49;;;;;;;11.13;5.83;;;;;;;;;;5076107;28;20105;-69
2022/11/25 00:56:15;;;;;;;11.23;5.80;;;;;;;;;;5059333;28;20467;-69
2022/11/25 00:58:42;;;;;;;10.90;5.93;;;;;;;;;;5075768;28;20056;-70
2022/11/25 01:01:08;;;;;;;12.50;6.23;;;;;;;;;;5092825;28;20366;-70
2022/11/25 01:03:35;;;;;;;10.13;5.67;;;;;;;;;;5076058;28;20035;-69
2022/11/25 01:06:05;;;;;;;11.30;6.63;;;;;;;;;;5092686;28;20097;-70
2022/11/25 01:08:34;;;;;;;13.60;6.43;;;;;;;;;;5059723;28;20039;-70
2022/11/25 01:11:00;;;;;;;11.50;5.87;;;;;;;;;;5075726;28;20097;-69
2022/11/25 01:13:25;;;;;;;11.97;5.87;;;;;;;;;;5058728;28;20085;-69
2022/11/25 01:15:51;;;;;;;12.63;6.17;;;;;;;;;;5058807;28;20036;-69
2022/11/25 01:18:17;;;;;;;14.33;7.00;;;;;;;;;;5075661;28;20040;-69
2022/11/25 01:20:42;;;;;;;12.03;6.60;;;;;;;;;;5092382;28;20074;-69
2022/11/25 01:23:10;;;;;;;13.47;6.13;;;;;;;;;;5058868;28;20130;-72
2022/11/25 01:25:36;;;;;;;12.47;5.63;;;;;;;;;;5059003;28;20028;-69
2022/11/25 01:28:02;;;;;;;8.47;4.83;;;;;;;;;;5058525;28;20032;-70
2022/11/25 01:30:27;;;;;;;11.00;5.90;;;;;;;;;;5075269;28;20036;-71
2022/11/25 01:32:53;;;;;;;12.40;5.63;;;;;;;;;;5058518;28;20039;-72
2022/11/25 01:35:19;;;;;;;11.40;6.00;;;;;;;;;;5058480;28;20052;-71
2022/11/25 01:37:45;;;;;;;12.43;6.00;;;;;;;;;;5058549;28;20458;-69
2022/11/25 01:40:10;;;;;;;10.10;5.50;;;;;;;;;;5075182;28;20036;-69
2022/11/25 01:42:41;;;;;;;11.93;5.97;;;;;;;;;;5058591;28;20035;-69
2022/11/25 01:45:22;;;;;;;14.80;6.13;;;;;;;;;;5058425;28;20126;-66
2022/11/25 01:47:52;;;;;;;11.57;5.70;;;;;;;;;;5058248;28;20097;-66
2022/11/25 01:50:20;;;;;;;14.27;5.80;;;;;;;;;;5091942;28;20036;-66
2022/11/25 01:52:47;;;;;;;9.43;5.80;;;;;;;;;;5058110;28;20054;-66
2022/11/25 01:55:20;;;;;;;13.40;5.47;;;;;;;;;;5075432;28;20048;-65
2022/11/25 01:57:47;;;;;;;11.02;6.00;;;;;;;;;;5058332;28;20503;-66
2022/11/25 02:00:13;;;;;;;10.60;6.23;;;;;;;;;;5074688;28;20205;-65
2022/11/25 02:02:47;;;;;;;12.67;5.90;;;;;;;;;;5059150;28;20036;-66
2022/11/25 02:05:15;;;;;;;10.43;5.73;;;;;;;;;;5058011;28;20502;-65
2022/11/25 02:07:42;;;;;;;13.30;5.80;;;;;;;;;;5074614;28;20031;-65
2022/11/25 02:10:17;;;;;;;10.50;5.40;;;;;;;;;;5058299;28;20117;-65
2022/11/25 02:12:44;;;;;;;11.97;5.40;;;;;;;;;;5074895;28;20032;-65
2022/11/25 02:15:10;;;;;;;13.23;5.97;;;;;;;;;;5057943;28;20131;-65
2022/11/25 02:17:37;;;;;;;11.27;6.10;;;;;;;;;;5074880;28;20024;-65
2022/11/25 02:20:07;;;;;;;12.03;6.00;;;;;;;;;;5057730;28;20036;-65
2022/11/25 02:22:41;;;;;;;10.00;5.22;;;;;;;;;;5057978;28;20122;-65
2022/11/25 02:25:13;;;;;;;12.37;6.10;;;;;;;;;;5074665;28;20040;-66
2022/11/25 02:27:40;;;;;;;12.63;6.00;;;;;;;;;;5058002;28;20428;-65
2022/11/25 02:30:06;;;;;;;15.53;6.20;;;;;;;;;;5074494;28;20064;-65
2022/11/25 02:32:31;;;;;;;9.30;5.47;;;;;;;;;;5057588;28;20036;-65
2022/11/25 02:35:00;;;;;;;12.70;6.23;;;;;;;;;;5054623;28;20040;-65
2022/11/25 02:37:27;;;;;;;14.30;6.50;;;;;;;;;;5037773;28;20039;-65
2022/11/25 02:39:53;;;;;;;14.87;6.63;;;;;;;;;;5037680;28;20052;-66
2022/11/25 02:42:20;;;;;;;16.70;7.47;;;;;;;;;;5054308;28;20101;-65
2022/11/25 02:44:47;;;;;;;15.53;6.93;;;;;;;;;;5037062;28;20029;-66
2022/11/25 02:47:13;;;;;;;12.37;6.90;;;;;;;;;;5053949;28;20459;-66
2022/11/25 02:49:39;;;;;;;11.90;6.67;;;;;;;;;;5037712;28;20132;-66
2022/11/25 02:52:04;;;;;;;15.07;7.00;;;;;;;;;;5053766;28;20086;-66
2022/11/25 02:54:30;;;;;;;15.73;6.57;;;;;;;;;;5057106;28;20044;-65
2022/11/25 02:56:56;;;;;;;16.10;6.77;;;;;;;;;;5060498;28;20111;-65
2022/11/25 02:59:21;;;;;;;15.33;6.73;;;;;;;;;;5076457;28;20074;-65
2022/11/25 03:01:47;;;;;;;12.57;6.53;;;;;;;;;;5059998;28;20422;-65
2022/11/25 03:04:12;;;;;;;13.40;6.47;;;;;;;;;;5060843;28;20032;-66
2022/11/25 03:06:38;;;;;;;13.47;6.97;;;;;;;;;;5061212;28;20611;-66
2022/11/25 03:09:05;;;;;;;15.03;7.53;;;;;;;;;;5061185;28;20032;-66
2022/11/25 03:14:20;;;;;;;12.17;7.17;;;;;;;;;;5077410;28;20039;-66
2022/11/25 03:16:47;;;;;;;14.90;6.70;;;;;;;;;;5060788;28;20047;-66
2022/11/25 03:19:13;;;;;;;12.60;6.23;;;;;;;;;;5060919;28;20031;-66
2022/11/25 03:21:38;;;;;;;14.83;6.70;;;;;;;;;;5060665;28;20068;-65
2022/11/25 03:24:04;;;;;;;12.40;6.83;;;;;;;;;;5077235;28;20040;-65
2022/11/25 03:26:30;;;;;;;13.63;7.27;;;;;;;;;;5077343;28;20032;-65
2022/11/25 03:28:55;;;;;;;13.67;6.90;;;;;;;;;;5060418;28;20388;-65
2022/11/25 03:31:21;;;;;;;10.03;5.67;;;;;;;;;;5060691;28;20028;-66
2022/11/25 03:33:47;;;;;;;15.67;6.17;;;;;;;;;;5060277;28;20039;-66
2022/11/25 03:36:12;;;;;;;11.63;6.20;;;;;;;;;;5060645;28;20044;-65
2022/11/25 03:38:38;;;;;;;13.13;6.10;;;;;;;;;;5077113;28;20036;-65
2022/11/25 03:41:04;;;;;;;11.57;5.97;;;;;;;;;;5060345;28;20119;-65
2022/11/25 03:43:31;;;;;;;13.40;5.83;;;;;;;;;;5076975;28;20039;-65
2022/11/25 03:45:57;;;;;;;11.10;5.67;;;;;;;;;;5060177;28;20074;-65
2022/11/25 03:48:23;;;;;;;8.50;5.13;;;;;;;;;;5060078;28;20059;-65
2022/11/25 03:50:48;;;;;;;8.73;4.97;;;;;;;;;;5060155;28;20082;-65
2022/11/25 03:53:14;;;;;;;9.63;5.10;;;;;;;;;;5060295;28;20480;-65
2022/11/25 03:55:39;;;;;;;9.60;4.97;;;;;;;;;;5076846;28;20118;-65
2022/11/25 03:58:05;;;;;;;8.10;4.60;;;;;;;;;;5094503;28;20135;-65
2022/11/25 04:00:32;;;;;;;10.70;5.43;;;;;;;;;;5063447;28;20081;-65
2022/11/25 04:03:01;;;;;;;7.88;4.68;;;;;;;;;;5080608;28;20048;-65
2022/11/25 04:05:29;;;;;;;9.00;4.30;;;;;;;;;;5062562;28;20040;-66
2022/11/25 04:07:59;;;;;;;7.67;5.07;;;;;;;;;;5063679;28;20130;-65
2022/11/25 04:10:25;;;;;;;6.67;4.03;;;;;;;;;;5079566;28;20362;-66
2022/11/25 04:12:52;;;;;;;7.77;4.13;;;;;;;;;;5063058;28;20405;-65
2022/11/25 04:15:22;;;;;;;;;;;;;;;;;;5055246;28;20051;-66
2022/11/25 04:17:51;;;;;;;8.27;4.40;;;;;;;;;;5059421;28;19916;-65
2022/11/25 04:20:18;;;;;;;8.60;4.37;;;;;;;;;;5043137;28;20131;-66
2022/11/25 04:22:49;;;;;;;6.03;3.93;;;;;;;;;;5043857;28;20132;-65
2022/11/25 04:25:17;;;;;;;8.27;4.67;;;;;;;;;;5043230;28;20079;-66
2022/11/25 04:27:43;;;;;;;9.63;4.77;;;;;;;;;;5042990;28;20432;-66
2022/11/25 04:30:10;;;;;;;9.50;4.67;;;;;;;;;;5042647;28;20050;-67
2022/11/25 04:32:38;;;;;;;8.53;5.00;;;;;;;;;;5043029;28;20235;-66
2022/11/25 04:35:07;;;;;;;9.97;4.80;;;;;;;;;;5042677;28;20458;-66
2022/11/25 04:37:33;;;;;;;9.30;4.70;;;;;;;;;;5042602;28;20028;-66
2022/11/25 04:39:59;;;;;;;8.93;5.03;;;;;;;;;;5042501;28;20036;-66
2022/11/25 04:42:33;;;;;;;7.47;4.30;;;;;;;;;;5059454;28;20036;-66
2022/11/25 04:45:04;;;;;;;11.10;5.00;;;;;;;;;;5059348;28;20032;-66
2022/11/25 04:47:30;;;;;;;9.80;5.37;;;;;;;;;;5042677;28;20039;-66
2022/11/25 04:49:56;;;;;;;11.03;5.40;;;;;;;;;;5042179;28;20040;-66
2022/11/25 04:52:23;;;;;;;7.43;4.80;;;;;;;;;;5042479;28;20032;-67
2022/11/25 04:54:48;;;;;;;10.33;5.40;;;;;;;;;;5042476;28;20105;-67
2022/11/25 04:57:14;;;;;;;11.30;5.43;;;;;;;;;;5042381;28;20466;-66
2022/11/25 04:59:43;;;;;;;12.13;5.60;;;;;;;;;;5056827;28;20051;-65
2022/11/25 05:02:18;;;;;;;8.03;5.40;;;;;;;;;;5062644;28;20529;-62
2022/11/25 05:05:07;;;;;;;12.60;5.73;;;;;;;;;;5068686;28;20085;-65
2022/11/25 05:07:33;;;;;;;8.67;4.90;;;;;;;;;;5079043;28;20039;-65
2022/11/25 05:09:59;;;;;;;10.47;5.10;;;;;;;;;;5052588;28;20036;-65
2022/11/25 05:12:33;;;;;;;8.83;5.40;;;;;;;;;;5057226;28;20032;-65
2022/11/25 05:15:03;;;;;;;10.57;5.10;;;;;;;;;;5072701;28;20216;-65
2022/11/25 05:17:30;;;;;;;10.10;5.77;;;;;;;;;;5090264;28;20082;-65
2022/11/25 05:19:57;;;;;;;9.50;5.03;;;;;;;;;;5056904;28;20036;-63
2022/11/25 05:22:25;;;;;;;10.57;5.13;;;;;;;;;;5074222;28;20531;-64
2022/11/25 05:24:51;;;;;;;10.20;5.67;;;;;;;;;;5057385;28;20051;-63
2022/11/25 05:27:18;;;;;;;11.00;6.10;;;;;;;;;;5090501;28;20039;-64
2022/11/25 05:29:44;;;;;;;11.17;6.30;;;;;;;;;;5072598;28;20481;-64
2022/11/25 05:32:11;;;;;;;9.50;5.00;;;;;;;;;;5071337;28;20032;-64
2022/11/25 05:34:36;;;;;;;11.33;5.67;;;;;;;;;;5073298;28;20048;-64
2022/11/25 05:37:02;;;;;;;10.67;5.60;;;;;;;;;;5090033;28;20050;-64
2022/11/25 05:39:29;;;;;;;12.97;6.17;;;;;;;;;;5073282;28;20032;-63
2022/11/25 05:42:29;;;;;;;12.20;6.20;;;;;;;;;;5060265;28;20031;-65
2022/11/25 05:45:00;;;;;;;11.48;6.00;;;;;;;;;;5090010;28;20059;-64
2022/11/25 05:47:29;;;;;;;13.80;6.37;;;;;;;;;;5090567;28;20036;-64
2022/11/25 05:49:55;;;;;;;13.57;5.97;;;;;;;;;;5040789;28;20047;-61
2022/11/25 05:52:21;;;;;;;9.70;5.47;;;;;;;;;;5070144;28;20038;-66
2022/11/25 05:54:52;;;;;;;11.60;6.03;;;;;;;;;;5050262;28;20608;-65
2022/11/25 05:57:18;;;;;;;10.93;5.83;;;;;;;;;;5067077;28;20150;-65
2022/11/25 05:59:46;;;;;;;11.20;5.60;;;;;;;;;;5065827;28;20058;-65
2022/11/25 06:02:32;;;;;;;8.60;5.03;;;;;;;;;;5058907;28;20520;-65
2022/11/25 06:04:58;;;;;;;13.43;6.10;;;;;;;;;;5049549;28;20028;-66
2022/11/25 06:07:23;;;;;;;14.13;6.03;;;;;;;;;;5054089;28;20522;-66
2022/11/25 06:09:49;;;;;;;8.33;4.47;;;;;;;;;;5065509;28;20031;-63
2022/11/25 06:12:18;;;;;;;9.23;4.90;;;;;;;;;;5065292;28;20031;-65
2022/11/25 06:14:49;;;;;;;11.10;5.13;;;;;;;;;;5065831;28;20042;-64
2022/11/25 06:17:15;;;;;;;8.83;5.00;;;;;;;;;;5064584;28;20039;-65
2022/11/25 06:19:47;;;;;;;11.43;5.20;;;;;;;;;;5053805;28;20049;-64
2022/11/25 06:22:13;;;;;;;13.43;5.80;;;;;;;;;;5049216;28;20032;-65
2022/11/25 06:24:38;;;;;;;14.37;6.00;;;;;;;;;;5064201;28;20020;-64
2022/11/25 06:27:06;;;;;;;16.20;5.73;;;;;;;;;;5048834;28;20035;-64
2022/11/25 06:29:34;;;;;;;13.77;5.83;;;;;;;;;;5066612;28;20044;-64
2022/11/25 06:32:01;;;;;;;16.17;6.70;;;;;;;;;;5064653;28;20063;-65
2022/11/25 06:34:41;;;;;;;10.10;5.43;;;;;;;;;;5065603;28;20122;-64
2022/11/25 06:37:12;;;;;;;12.07;6.33;;;;;;;;;;5066879;28;20035;-64
2022/11/25 06:39:37;;;;;;;11.73;6.17;;;;;;;;;;5049594;28;20092;-65
2022/11/25 06:42:03;;;;;;;14.83;6.40;;;;;;;;;;5046590;28;20032;-64
2022/11/25 06:44:28;;;;;;;11.63;6.03;;;;;;;;;;5048348;28;20032;-63
2022/11/25 06:46:54;;;;;;;16.43;6.83;;;;;;;;;;5048097;28;20063;-64
2022/11/25 06:49:20;;;;;;;12.53;6.07;;;;;;;;;;5083478;28;20035;-64
2022/11/25 06:51:48;;;;;;;10.23;5.30;;;;;;;;;;5048601;28;20423;-65
2022/11/25 06:54:13;;;;;;;10.13;5.33;;;;;;;;;;5082912;28;20439;-64
2022/11/25 06:56:40;;;;;;;11.37;5.73;;;;;;;;;;5048178;28;20109;-64
2022/11/25 06:59:09;;;;;;;10.43;5.40;;;;;;;;;;5045357;28;20484;-64
2022/11/25 07:01:35;;;;;;;9.00;5.23;;;;;;;;;;5062714;28;20107;-64
2022/11/25 07:04:02;;;;;;;10.97;6.00;;;;;;;;;;5063384;28;20124;-64
2022/11/25 07:06:28;;;;;;;11.17;5.67;;;;;;;;;;5053212;28;20055;-63
2022/11/25 07:08:54;;;;;;;11.63;7.00;;;;;;;;;;5062603;28;20033;-64
2022/11/25 07:11:21;;;;;;;9.67;5.47;;;;;;;;;;5052420;28;20428;-62
2022/11/25 07:13:50;;;;;;;11.13;5.87;;;;;;;;;;5045249;28;20032;-64
2022/11/25 07:16:16;;;;;;;14.87;7.03;;;;;;;;;;5077099;28;20075;-64
2022/11/25 07:18:41;;;;;;;11.87;7.00;;;;;;;;;;5062959;28;20489;-65
2022/11/25 07:21:11;;;;;;;12.60;6.80;;;;;;;;;;5057515;28;20039;-64
2022/11/25 07:23:38;;;;;;;10.57;6.18;;;;;;;;;;5063231;28;20040;-64
2022/11/25 07:26:08;;;;;;;11.37;6.57;;;;;;;;;;5077769;28;20043;-64
2022/11/25 07:28:34;;;;;;;12.93;6.85;;;;;;;;;;5054729;28;20034;-64
2022/11/25 07:31:06;;;;;;;12.73;6.70;;;;;;;;;;5062409;28;20040;-65
2022/11/25 07:33:35;;;;;;;16.40;8.17;;;;;;;;;;5066999;28;20039;-65
2022/11/25 07:36:04;;;;;;;13.87;7.77;;;;;;;;;;5073215;28;20051;-65
2022/11/25 07:38:30;;;;;;;10.67;6.77;;;;;;;;;;5050948;28;20036;-65
2022/11/25 07:41:01;;;;;;;13.23;7.10;;;;;;;;;;5080296;28;20047;-66
2022/11/25 07:43:30;;;;;;;13.20;7.07;;;;;;;;;;5046867;28;20489;-65
2022/11/25 07:46:19;;;;;;;12.37;6.80;;;;;;;;;;5049431;28;20134;-64
2022/11/25 07:48:45;;;;;;;14.53;7.00;;;;;;;;;;5081319;28;20040;-65
2022/11/25 07:51:14;;;;;;;15.90;7.23;;;;;;;;;;5048513;28;20086;-65
2022/11/25 07:53:39;;;;;;;12.80;5.90;;;;;;;;;;5047076;28;20122;-65
2022/11/25 07:56:05;;;;;;;13.80;6.13;;;;;;;;;;5064980;28;20123;-65
2022/11/25 07:58:32;;;;;;;12.27;6.87;;;;;;;;;;5048732;28;20052;-65
2022/11/25 08:01:01;;;;;;;11.47;5.87;;;;;;;;;;5049712;28;20039;-65
2022/11/25 08:03:26;;;;;;;9.80;6.27;;;;;;;;;;5082463;28;20107;-65
2022/11/25 08:05:52;;;;;;;11.93;6.20;;;;;;;;;;5060867;28;20127;-65
2022/11/25 08:08:18;;;;;;;10.60;5.87;;;;;;;;;;5056395;28;20415;-65
2022/11/25 08:10:43;;;;;;;10.40;6.57;;;;;;;;;;5056687;28;20058;-65
2022/11/25 08:13:09;;;;;;;13.67;5.87;;;;;;;;;;5055107;28;20044;-65
2022/11/25 08:15:35;;;;;;;14.40;6.27;;;;;;;;;;5072602;28;20040;-65
2022/11/25 08:18:01;;;;;;;13.73;6.53;;;;;;;;;;5073231;28;20101;-65
2022/11/25 08:20:27;;;;;;;11.43;6.13;;;;;;;;;;5057338;28;20143;-65
2022/11/25 08:22:54;;;;;;;12.20;5.90;;;;;;;;;;5059097;28;20068;-63
2022/11/25 08:25:20;;;;;;;11.97;6.17;;;;;;;;;;5072097;28;20043;-65
2022/11/25 08:27:47;;;;;;;13.53;6.83;;;;;;;;;;5047797;28;20123;-64
2022/11/25 08:30:12;;;;;;;16.80;6.63;;;;;;;;;;5062934;28;20124;-65
2022/11/25 08:32:38;;;;;;;10.67;6.30;;;;;;;;;;5051049;28;20444;-65
2022/11/25 08:35:04;;;;;;;15.00;6.83;;;;;;;;;;5069051;28;20446;-64
2022/11/25 08:37:30;;;;;;;15.10;6.63;;;;;;;;;;5058765;28;20082;-65
2022/11/25 08:39:56;;;;;;;13.17;6.50;;;;;;;;;;5074817;28;20032;-65
2022/11/25 08:42:22;;;;;;;13.03;6.50;;;;;;;;;;5058618;28;20757;-64
2022/11/25 08:44:52;;;;;;;11.80;6.10;;;;;;;;;;5056230;28;20558;-66
2022/11/25 08:47:18;;;;;;;12.82;6.20;;;;;;;;;;5062130;28;20033;-65
2022/11/25 08:49:43;;;;;;;15.27;7.13;;;;;;;;;;5050450;28;20032;-65
2022/11/25 08:52:09;;;;;;;15.80;7.07;;;;;;;;;;5056644;28;20020;-66
2022/11/25 08:54:35;;;;;;;15.93;7.33;;;;;;;;;;5048008;28;20040;-65
2022/11/25 08:57:01;;;;;;;14.20;6.37;;;;;;;;;;5079431;28;20423;-65
2022/11/25 08:59:27;;;;;;;16.80;7.37;;;;;;;;;;5042274;28;20055;-65
2022/11/25 09:01:52;;;;;;;15.97;7.40;;;;;;;;;;5038584;28;20036;-64
2022/11/25 09:04:18;;;;;;;13.47;7.20;;;;;;;;;;5038170;28;20036;-64
2022/11/25 09:06:43;;;;;;;13.07;6.87;;;;;;;;;;5037605;28;20032;-62
2022/11/25 09:09:10;;;;;;;15.60;6.93;;;;;;;;;;5038368;28;20459;-62
2022/11/25 09:11:36;;;;;;;13.03;6.70;;;;;;;;;;5037772;28;20119;-64
2022/11/25 09:14:01;;;;;;;18.10;8.17;;;;;;;;;;5037830;28;20437;-63
2022/11/25 09:16:27;;;;;;;16.17;8.17;;;;;;;;;;5054730;28;20127;-63
2022/11/25 09:18:53;;;;;;;16.40;7.70;;;;;;;;;;5038116;28;20087;-62
2022/11/25 09:21:18;;;;;;;21.00;7.63;;;;;;;;;;5037790;28;20501;-62
2022/11/25 09:23:44;;;;;;;18.00;7.90;;;;;;;;;;5036704;28;20078;-64
2022/11/25 09:26:23;;;;;;;18.53;8.57;;;;;;;;;;5034222;28;20399;-64
2022/11/25 09:28:49;;;;;;;18.67;8.33;;;;;;;;;;5050958;28;20102;-64
2022/11/25 09:31:14;;;;;;;16.10;7.53;;;;;;;;;;5035070;28;20406;-64
2022/11/25 09:33:43;;;;;;;20.70;8.00;;;;;;;;;;5051974;28;20028;-64
2022/11/25 09:36:10;;;;;;;16.43;7.90;;;;;;;;;;5036242;28;20041;-63
2022/11/25 09:38:38;;;;;;;15.70;6.40;;;;;;;;;;5036461;28;20044;-64
2022/11/25 09:41:12;;;;;;;15.00;6.47;;;;;;;;;;5053709;28;20038;-62
2022/11/25 09:46:41;;;;;;;17.27;6.83;;;;;;;;;;5070251;28;20036;-64
2022/11/25 09:49:16;;;;;;;10.73;5.87;;;;;;;;;;5037190;28;20193;-64
2022/11/25 09:51:48;;;;;;;11.10;5.37;;;;;;;;;;5037518;28;20036;-63
2022/11/25 09:54:29;;;;;;;11.33;5.87;;;;;;;;;;5037136;28;20051;-64
2022/11/25 09:57:00;;;;;;;13.73;6.07;;;;;;;;;;5037406;28;20513;-64
2022/11/25 09:59:25;;;;;;;;;;;;;;;;;;5037691;28;20060;-63
2022/11/25 10:01:54;;;;;;;15.57;5.70;;;;;;;;;;5053818;28;20049;-63
2022/11/25 10:04:31;;;;;;;12.40;5.60;;;;;;;;;;5035985;28;20063;-64
2022/11/25 10:07:00;;;;;;;14.57;6.23;;;;;;;;;;5037023;28;20043;-63
2022/11/25 10:09:27;;;;;;;15.00;5.93;;;;;;;;;;5053793;28;20432;-64
2022/11/25 10:12:12;;;;;;;18.37;6.40;;;;;;;;;;5036647;28;20028;-64
2022/11/25 10:14:41;;;;;;;15.00;6.27;;;;;;;;;;5053624;28;20470;-63
2022/11/25 10:17:10;;;;;;;15.90;6.60;;;;;;;;;;5053678;28;20033;-64
2022/11/25 10:19:45;;;;;;;10.83;6.00;;;;;;;;;;5037252;28;20035;-64
2022/11/25 10:22:27;;;;;;;10.37;5.63;;;;;;;;;;5036781;28;20367;-64
2022/11/25 10:24:55;;;;;;;14.30;6.20;;;;;;;;;;5036901;28;20043;-62
2022/11/25 10:27:36;;;;;;;12.63;5.63;;;;;;;;;;5052899;28;20033;-62
2022/11/25 10:30:11;;;;;;;13.00;5.20;;;;;;;;;;5069859;28;20067;-64
2022/11/25 10:32:41;;;;;;;8.93;5.37;;;;;;;;;;5036861;28;20497;-63
2022/11/25 10:35:14;;;;;;;12.00;4.85;;;;;;;;;;5053089;28;20082;-64
2022/11/25 10:37:43;;;;;;;15.63;6.10;;;;;;;;;;5053389;28;20102;-63
2022/11/25 10:40:13;;;;;;;10.93;4.97;;;;;;;;;;5036672;28;20036;-62
2022/11/25 10:42:39;;;;;;;11.98;5.40;;;;;;;;;;5070103;28;20037;-64
2022/11/25 10:45:07;;;;;;;13.70;6.23;;;;;;;;;;5036997;28;20036;-64
2022/11/25 10:47:33;;;;;;;9.93;5.50;;;;;;;;;;5070604;28;20037;-63
2022/11/25 10:49:59;;;;;;;12.60;5.87;;;;;;;;;;5036517;28;20040;-65
2022/11/25 10:52:27;;;;;;;11.73;5.60;;;;;;;;;;5049397;28;20055;-63
2022/11/25 10:54:57;;;;;;;13.73;5.87;;;;;;;;;;5053032;28;20098;-64
2022/11/25 10:57:27;;;;;;;14.07;5.80;;;;;;;;;;5070889;28;20048;-63
2022/11/25 10:59:57;;;;;;;13.43;6.50;;;;;;;;;;5070005;28;20482;-64
2022/11/25 11:02:29;;;;;;;11.68;5.10;;;;;;;;;;5070575;28;20040;-63
2022/11/25 11:04:56;;;;;;;15.07;4.93;;;;;;;;;;5036980;28;20036;-64
2022/11/25 11:07:22;;;;;;;11.93;6.10;;;;;;;;;;5036157;28;20055;-63
2022/11/25 11:09:48;;;;;;;11.40;5.37;;;;;;;;;;5052538;28;20463;-64
2022/11/25 11:12:17;;;;;;;12.60;6.07;;;;;;;;;;5068717;28;20028;-64
2022/11/25 11:14:42;;;;;;;13.27;5.80;;;;;;;;;;5053084;28;20052;-64
2022/11/25 11:17:22;;;;;;;13.20;5.70;;;;;;;;;;5040151;28;20048;-63
2022/11/25 11:20:05;;;;;;;11.57;6.00;;;;;;;;;;5040285;28;20479;-63
2022/11/25 11:22:34;;;;;;;10.37;5.73;;;;;;;;;;5044575;28;20371;-64
2022/11/25 11:25:08;;;;;;;15.33;5.43;;;;;;;;;;5073133;28;20202;-66
2022/11/25 11:27:37;;;;;;;12.70;6.10;;;;;;;;;;5047021;28;20059;-64
2022/11/25 11:30:23;;;;;;;14.30;5.63;;;;;;;;;;5064327;28;20541;-62
2022/11/25 11:32:58;;;;;;;11.47;5.30;;;;;;;;;;5080666;28;20036;-64
2022/11/25 11:35:38;;;;;;;9.20;5.03;;;;;;;;;;5063184;28;20052;-63
2022/11/25 11:38:31;;;;;;;8.90;5.10;;;;;;;;;;5063294;28;20032;-64
2022/11/25 11:41:09;;;;;;;9.50;5.03;;;;;;;;;;5045230;28;20040;-64
2022/11/25 11:43:35;;;;;;;12.17;5.10;;;;;;;;;;5080973;28;20028;-65
2022/11/25 11:46:11;;;;;;;9.83;4.53;;;;;;;;;;5048289;28;20032;-66
2022/11/25 11:48:43;;;;;;;8.03;4.67;;;;;;;;;;5065923;28;20035;-65
2022/11/25 11:51:27;;;;;;;11.47;5.97;;;;;;;;;;5063787;28;20032;-66
2022/11/25 11:54:23;;;;;;;10.87;5.07;;;;;;;;;;5088633;28;20036;-65
2022/11/25 11:57:11;;;;;;;10.20;5.50;;;;;;;;;;5091256;28;20036;-62
2022/11/25 11:59:39;;;;;;;11.67;5.70;;;;;;;;;;5064164;28;20059;-65
2022/11/25 12:02:23;;;;;;;11.70;5.47;;;;;;;;;;5059083;28;20433;-65
2022/11/25 12:05:06;;;;;;;13.13;5.93;;;;;;;;;;5063844;28;20051;-66
2022/11/25 12:07:38;;;;;;;15.73;5.30;;;;;;;;;;5058438;28;20093;-66
2022/11/25 12:10:09;;;;;;;11.63;5.47;;;;;;;;;;5058262;28;20523;-65
2022/11/25 12:12:34;;;;;;;;;;;;;;;;;;5058551;28;20130;-64
2022/11/25 12:15:03;;;;;;;15.80;5.10;;;;;;;;;;5075826;28;20030;-68
2022/11/25 12:17:33;;;;;;;10.33;4.93;;;;;;;;;;5059437;28;20035;-65
2022/11/25 12:20:09;;;;;;;14.07;5.70;;;;;;;;;;5060390;28;20027;-63
2022/11/25 12:22:39;;;;;;;12.87;5.27;;;;;;;;;;5059662;28;20153;-65
2022/11/25 12:25:18;;;;;;;15.50;5.82;;;;;;;;;;5063467;28;20037;-65
2022/11/25 12:27:47;;;;;;;13.17;6.07;;;;;;;;;;5072957;28;20115;-65
2022/11/25 12:30:15;;;;;;;9.83;5.00;;;;;;;;;;5054867;28;20094;-62
2022/11/25 12:32:40;;;;;;;9.70;5.27;;;;;;;;;;5074671;28;20039;-64
2022/11/25 12:35:09;;;;;;;13.50;5.17;;;;;;;;;;5050519;28;20040;-65
2022/11/25 12:37:42;;;;;;;8.93;5.20;;;;;;;;;;5058718;28;20373;-64
2022/11/25 12:40:16;;;;;;;9.77;5.47;;;;;;;;;;5057972;28;20126;-65
2022/11/25 12:42:42;;;;;;;17.00;6.03;;;;;;;;;;5075186;28;20031;-64
2022/11/25 12:45:16;;;;;;;12.23;5.60;;;;;;;;;;5074825;28;20161;-64
2022/11/25 12:47:42;;;;;;;14.47;5.63;;;;;;;;;;5091693;28;20144;-64
2022/11/25 12:50:13;;;;;;;16.27;5.63;;;;;;;;;;5074406;28;20178;-65
2022/11/25 12:52:42;;;;;;;14.27;5.93;;;;;;;;;;5047010;28;20047;-65
2022/11/25 12:55:09;;;;;;;20.07;6.70;;;;;;;;;;5047498;28;20044;-65
2022/11/25 12:57:47;;;;;;;15.43;6.10;;;;;;;;;;5054121;28;20048;-65
2022/11/25 13:00:24;;;;;;;12.53;6.53;;;;;;;;;;5045377;28;20056;-65
2022/11/25 13:03:00;;;;;;;13.43;5.70;;;;;;;;;;5065289;28;20538;-65
2022/11/25 13:05:44;;;;;;;13.70;6.07;;;;;;;;;;5079286;28;20028;-65
2022/11/25 13:08:19;;;;;;;12.90;6.60;;;;;;;;;;5042229;28;20538;-65
2022/11/25 13:11:00;;;;;;;12.27;6.03;;;;;;;;;;5041956;28;20032;-65
2022/11/25 13:13:31;;;;;;;14.20;6.13;;;;;;;;;;5035081;28;20059;-65
2022/11/25 13:15:58;;;;;;;10.37;5.97;;;;;;;;;;5051513;28;20127;-65
2022/11/25 13:18:26;;;;;;;15.50;6.47;;;;;;;;;;5035370;28;20036;-65
2022/11/25 13:20:52;;;;;;;10.70;6.33;;;;;;;;;;5035679;28;20031;-64
2022/11/25 13:23:22;;;;;;;14.77;6.40;;;;;;;;;;5053962;28;20532;-65
2022/11/25 13:25:48;;;;;;;12.30;6.13;;;;;;;;;;5037721;28;20131;-65
2022/11/25 13:28:31;;;;;;;11.93;6.30;;;;;;;;;;5070337;28;20033;-65
2022/11/25 13:31:12;;;;;;;9.10;5.50;;;;;;;;;;5053771;28;20101;-65
2022/11/25 13:33:37;;;;;;;;;;;;;;;;;;5038038;28;20036;-65
2022/11/25 13:36:14;;;;;;;11.47;5.60;;;;;;;;;;5037466;28;20010;-65
2022/11/25 13:38:49;;;;;;;9.20;5.00;;;;;;;;;;5037172;28;20055;-62
2022/11/25 13:41:15;;;;;;;9.83;5.20;;;;;;;;;;5037134;28;20040;-64
2022/11/25 13:43:53;;;;;;;8.57;5.10;;;;;;;;;;5037495;28;20047;-63
2022/11/25 13:46:42;;;;;;;13.27;6.13;;;;;;;;;;5037063;28;20028;-63
2022/11/25 13:49:28;;;;;;;13.23;6.30;;;;;;;;;;5056748;28;20083;-61
2022/11/25 13:51:59;;;;;;;11.63;5.70;;;;;;;;;;5063327;28;20538;-65
2022/11/25 13:54:45;;;;;;;9.15;5.53;;;;;;;;;;5046655;28;20479;-65
2022/11/25 13:57:11;;;;;;;11.20;6.10;;;;;;;;;;5047862;28;20479;-64
2022/11/25 13:59:40;;;;;;;13.50;5.43;;;;;;;;;;5044170;28;20052;-65
2022/11/25 14:02:07;;;;;;;;;;;;;;;;;;5064396;28;20074;-65
2022/11/25 14:04:51;;;;;;;9.33;5.60;;;;;;;;;;5061387;28;19947;-65
2022/11/25 14:07:29;;;;;;;8.70;5.10;;;;;;;;;;5087731;28;20358;-64
2022/11/25 14:09:55;;;;;;;11.03;5.67;;;;;;;;;;5081212;28;20458;-65
2022/11/25 14:12:37;;;;;;;11.33;5.77;;;;;;;;;;5071818;28;20043;-65
2022/11/25 14:15:03;;;;;;;10.80;5.83;;;;;;;;;;5073145;28;20048;-66
2022/11/25 14:17:32;;;;;;;12.70;6.37;;;;;;;;;;5057141;28;20071;-64
2022/11/25 14:20:13;;;;;;;9.90;5.83;;;;;;;;;;5056641;28;20097;-65
2022/11/25 14:22:50;;;;;;;8.57;5.07;;;;;;;;;;5091239;28;20043;-65
2022/11/25 14:25:28;;;;;;;15.33;5.67;;;;;;;;;;5056420;28;20094;-65
2022/11/25 14:28:14;;;;;;;13.67;4.93;;;;;;;;;;5089960;28;20458;-65
2022/11/25 14:30:44;;;;;;;13.00;5.43;;;;;;;;;;5059087;28;20032;-65
2022/11/25 14:33:11;;;;;;;9.00;5.23;;;;;;;;;;5056544;28;20036;-65
2022/11/25 14:35:42;;;;;;;8.50;4.87;;;;;;;;;;5073159;28;20082;-65
2022/11/25 14:38:14;;;;;;;10.60;5.10;;;;;;;;;;5090957;28;20032;-65
2022/11/25 14:40:42;;;;;;;12.07;5.63;;;;;;;;;;5089902;28;20031;-65
2022/11/25 14:43:13;;;;;;;10.17;5.67;;;;;;;;;;5054603;28;20093;-65
2022/11/25 14:45:39;;;;;;;8.20;4.78;;;;;;;;;;5078017;28;20061;-65
2022/11/25 14:48:18;;;;;;;7.03;4.80;;;;;;;;;;5044354;28;20036;-65
2022/11/25 14:51:12;;;;;;;9.40;4.70;;;;;;;;;;5044898;28;20036;-65
2022/11/25 14:53:40;;;;;;;10.23;5.07;;;;;;;;;;5038019;28;20444;-65
2022/11/25 14:56:06;;;;;;;12.13;5.57;;;;;;;;;;5097502;28;20036;-66
2022/11/25 14:58:31;;;;;;;16.50;5.93;;;;;;;;;;5088718;28;20097;-65